Terminal Aerodrome Forecast
Issued by NWS Pittsburgh, PA

Current Version | Previous Version | Graphics & Text | Print | Product List | Glossary On
Versions: 1 2 3 4 5 6 7 8 9 10 11 12 13 14 15 16 17 18 19 20 21 22 23 24 25 26 27 28 29 30 31 32 33 34 35 36 37
000
FTUS41 KPBZ 300300 AAA
TAFPIT
TAF AMD
KPIT 300316Z 3003/3106 27012G22KT P6SM -SHSN OVC015
     FM300400 27012G22KT 2SM -SHSN OVC018
     FM300900 30012G24KT 3SM -SHSN OVC012
     FM301500 31012G24KT P6SM OVC015
     FM310300 31010KT P6SM SCT020=

USA.gov is the U.S. government's official web portal to all federal, state and local government web resources and services.